Time;durP1;ratioP1;P1;durP2;ratioP2;P2;SDS_P1;SDS_P2;PMS_P1;PMS_P2;Temp;Humidity;BMP_temperature;BMP_pressure;BME280_temperature;BME280_humidity;BME280_pressure;Samples;Min_cycle;Max_cycle;Signal;HPM_P1;HPM_P2
2023/07/17 00:02:13;;;;;;;9.43;7.13;;;;;;;27.02;58.17;101154.91;6305045;22;20790;-77
2023/07/17 00:04:38;;;;;;;9.47;7.13;;;;;;;26.88;58.46;101141.81;6305356;22;20782;-76
2023/07/17 00:07:04;;;;;;;8.93;7.30;;;;;;;26.87;58.47;101151.06;6303820;22;20728;-76
2023/07/17 00:09:30;;;;;;;13.60;7.60;;;;;;;26.86;58.46;101151.31;6304408;22;20344;-76
2023/07/17 00:11:56;;;;;;;14.20;8.13;;;;;;;26.89;58.01;101140.72;6305068;22;20415;-76
2023/07/17 00:14:21;;;;;;;15.23;8.07;;;;;;;26.94;57.88;101147.25;6304847;22;20662;-76
2023/07/17 00:16:47;;;;;;;15.23;7.80;;;;;;;26.91;58.25;101143.19;6304357;22;20329;-76
2023/07/17 00:19:12;;;;;;;11.90;7.67;;;;;;;26.94;58.12;101148.09;6304642;22;20334;-75
2023/07/17 00:21:38;;;;;;;16.47;8.30;;;;;;;26.77;58.67;101142.06;6277358;22;20376;-75
2023/07/17 00:24:03;;;;;;;15.35;8.55;;;;;;;26.87;58.00;101142.91;6304693;22;20342;-77
2023/07/17 00:26:30;;;;;;;15.20;8.60;;;;;;;26.91;57.72;101145.91;6304521;22;20892;-76
2023/07/17 00:29:25;;;;;;;14.32;8.60;;;;;;;27.03;57.48;101145.66;6304642;22;20338;-75
2023/07/17 00:31:52;;;;;;;16.38;8.52;;;;;;;26.97;57.75;101144.81;6304276;22;20344;-75
2023/07/17 00:34:21;;;;;;;10.90;7.47;;;;;;;26.86;58.02;101152.13;6304580;22;20338;-75
2023/07/17 00:36:47;;;;;;;13.57;8.02;;;;;;;26.85;57.99;101145.06;6304504;22;20341;-76
2023/07/17 00:39:18;;;;;;;13.05;7.82;;;;;;;26.78;57.97;101138.25;6301618;22;20342;-76
2023/07/17 00:41:44;;;;;;;14.48;7.90;;;;;;;26.62;58.76;101148.28;6277284;22;20444;-76
2023/07/17 00:44:10;;;;;;;15.17;8.43;;;;;;;26.55;58.79;101145.78;6304540;22;20361;-75
2023/07/17 00:46:36;;;;;;;14.63;8.25;;;;;;;26.61;58.26;101146.63;6303998;22;20365;-75
2023/07/17 00:49:03;;;;;;;12.82;8.25;;;;;;;26.68;58.35;101144.47;6304527;22;20338;-75
2023/07/17 00:51:30;;;;;;;13.85;7.68;;;;;;;26.73;58.04;101160.00;6304379;22;20628;-76
2023/07/17 00:53:56;;;;;;;14.45;8.50;;;;;;;26.61;58.29;101149.34;6304633;22;20334;-76
2023/07/17 00:56:23;;;;;;;13.13;8.20;;;;;;;26.62;58.19;101146.38;6303929;22;20675;-76
2023/07/17 00:58:48;;;;;;;11.60;7.93;;;;;;;26.67;58.01;101154.56;6304508;22;20353;-77
2023/07/17 01:01:14;;;;;;;12.50;8.13;;;;;;;26.74;57.90;101148.03;6303985;22;20326;-76
2023/07/17 01:03:40;;;;;;;12.17;7.70;;;;;;;26.77;57.59;101145.59;6277178;22;20369;-75
2023/07/17 01:06:05;;;;;;;13.97;8.20;;;;;;;26.82;57.34;101144.78;6304298;22;20362;-76
2023/07/17 01:08:31;;;;;;;14.40;8.57;;;;;;;26.85;57.21;101141.53;6304432;22;20341;-76
2023/07/17 01:10:57;;;;;;;15.02;8.93;;;;;;;26.93;57.16;101142.91;6304514;22;20504;-77
2023/07/17 01:13:23;;;;;;;12.98;8.07;;;;;;;27.02;56.48;101147.53;6304247;22;20334;-75
2023/07/17 01:15:48;;;;;;;13.75;8.23;;;;;;;27.04;56.57;101144.56;6304364;22;20330;-76
2023/07/17 01:18:14;;;;;;;12.43;8.48;;;;;;;27.05;56.59;101147.00;6279391;22;20350;-76
2023/07/17 01:20:41;;;;;;;11.50;8.03;;;;;;;27.08;56.24;101145.63;6306412;22;20343;-75
2023/07/17 01:23:06;;;;;;;12.90;8.25;;;;;;;27.07;56.34;101150.28;6306304;22;20633;-76
2023/07/17 01:25:32;;;;;;;13.30;8.43;;;;;;;27.05;56.43;101143.47;6304787;22;20394;-76
2023/07/17 01:27:58;;;;;;;15.65;8.57;;;;;;;27.05;56.22;101144.28;6304348;22;20342;-75
2023/07/17 01:30:24;;;;;;;16.70;8.50;;;;;;;27.11;56.19;101145.09;6305608;22;20347;-76
2023/07/17 01:32:49;;;;;;;12.70;7.95;;;;;;;27.14;55.84;101143.78;6304403;22;20786;-77
2023/07/17 01:35:15;;;;;;;12.98;8.15;;;;;;;27.09;55.83;101141.84;6277657;22;20666;-76
2023/07/17 01:37:42;;;;;;;13.30;8.67;;;;;;;27.17;55.59;101146.75;6304622;22;20713;-76
2023/07/17 01:40:09;;;;;;;11.90;7.80;;;;;;;27.19;55.66;101144.59;6277122;22;20342;-76
2023/07/17 01:42:35;;;;;;;14.45;8.48;;;;;;;27.19;55.70;101141.03;6304255;22;20334;-75
2023/07/17 01:45:01;;;;;;;14.00;8.23;;;;;;;27.18;55.69;101140.22;6303699;22;20348;-75
2023/07/17 01:47:26;;;;;;;15.57;8.43;;;;;;;27.19;55.70;101150.03;6304826;22;20372;-75
2023/07/17 01:49:52;;;;;;;13.30;7.73;;;;;;;27.18;55.81;101147.56;6305321;22;20791;-76
2023/07/17 01:52:17;;;;;;;12.52;8.52;;;;;;;27.17;55.83;101149.50;6303700;22;20644;-76
2023/07/17 01:54:43;;;;;;;16.57;9.07;;;;;;;27.08;55.71;101151.09;6304351;22;20345;-76
2023/07/17 01:57:09;;;;;;;12.90;8.38;;;;;;;26.99;56.32;101153.53;6303684;22;20480;-76
2023/07/17 01:59:34;;;;;;;14.27;8.00;;;;;;;26.84;56.88;101161.66;6303456;22;20419;-76
2023/07/17 02:02:00;;;;;;;14.03;8.03;;;;;;;26.61;57.60;101163.75;6303942;22;20334;-76
2023/07/17 02:04:26;;;;;;;17.33;9.00;;;;;;;26.51;57.87;101167.25;6303935;22;20787;-76
2023/07/17 02:06:51;;;;;;;17.53;8.30;;;;;;;26.43;58.03;101162.31;6304935;22;20366;-77
2023/07/17 02:09:17;;;;;;;14.32;8.23;;;;;;;26.41;57.97;101166.38;6305902;22;20341;-76
2023/07/17 02:11:42;;;;;;;13.30;8.50;;;;;;;26.39;57.97;101166.63;6305900;22;20663;-77
2023/07/17 02:14:08;;;;;;;11.23;8.30;;;;;;;26.31;58.24;101169.88;6305620;22;20486;-77
2023/07/17 02:16:34;;;;;;;13.57;8.38;;;;;;;26.17;58.63;101166.00;6306359;22;20416;-77
2023/07/17 02:18:59;;;;;;;11.33;7.93;;;;;;;26.21;58.50;101167.09;6306121;22;20357;-75
2023/07/17 02:21:25;;;;;;;11.57;8.10;;;;;;;26.30;57.85;101171.75;6279181;22;20342;-77
2023/07/17 02:23:51;;;;;;;12.90;8.02;;;;;;;26.21;58.21;101173.34;6305932;22;20344;-77
2023/07/17 02:26:16;;;;;;;15.75;8.73;;;;;;;26.23;58.28;101184.75;6305668;22;20730;-76
2023/07/17 02:28:42;;;;;;;16.98;9.20;;;;;;;26.05;58.84;101180.59;6305938;22;20351;-77
2023/07/17 02:31:07;;;;;;;12.80;8.57;;;;;;;25.79;59.58;101186.91;6305739;22;20363;-76
2023/07/17 02:33:33;;;;;;;13.23;8.00;;;;;;;25.66;60.08;101190.88;6305842;22;20333;-77
2023/07/17 02:35:58;;;;;;;15.27;8.40;;;;;;;25.72;59.69;101189.84;6305749;22;20632;-75
2023/07/17 02:38:24;;;;;;;16.17;8.97;;;;;;;25.67;59.86;101189.81;6305603;22;20349;-77
2023/07/17 02:40:50;;;;;;;15.38;8.48;;;;;;;25.78;59.36;101186.09;6305663;22;20783;-77
2023/07/17 02:43:15;;;;;;;13.80;9.13;;;;;;;25.92;59.01;101187.28;6305368;22;20495;-76
2023/07/17 02:45:41;;;;;;;12.60;8.50;;;;;;;26.11;58.46;101198.56;6306096;22;20334;-78
2023/07/17 02:48:07;;;;;;;11.40;8.07;;;;;;;26.17;58.00;101190.47;6305637;22;20715;-76
2023/07/17 02:50:32;;;;;;;15.80;8.30;;;;;;;26.23;57.92;101195.63;6305592;22;20338;-78
2023/07/17 02:52:58;;;;;;;13.70;8.33;;;;;;;26.26;57.36;101188.88;6305962;22;20333;-76
2023/07/17 02:55:23;;;;;;;14.88;8.95;;;;;;;26.32;57.18;101196.78;6304927;22;20349;-76
2023/07/17 02:57:49;;;;;;;15.30;8.27;;;;;;;26.33;57.01;101190.25;6299738;22;20441;-77
2023/07/17 03:00:17;;;;;;;15.23;8.13;;;;;;;26.41;56.84;101201.72;6299905;22;20345;-75
2023/07/17 03:02:43;;;;;;;13.63;8.52;;;;;;;26.33;57.08;101201.13;6299700;22;20547;-77
2023/07/17 03:05:10;;;;;;;15.00;8.30;;;;;;;26.18;57.89;101206.50;6299157;22;20361;-77
2023/07/17 03:07:43;;;;;;;13.98;8.30;;;;;;;26.16;57.96;101200.47;6300315;22;20750;-76
2023/07/17 03:10:09;;;;;;;13.45;8.25;;;;;;;26.31;57.26;101205.22;6302195;22;20413;-75
2023/07/17 03:12:35;;;;;;;16.30;8.47;;;;;;;26.38;57.07;101200.34;6301579;22;20400;-75
2023/07/17 03:15:00;;;;;;;18.77;8.93;;;;;;;26.39;57.24;101196.53;6301835;22;20669;-76
2023/07/17 03:17:26;;;;;;;13.90;8.13;;;;;;;26.41;56.96;101199.81;6274996;22;20338;-76
2023/07/17 03:19:51;;;;;;;12.80;8.90;;;;;;;26.39;57.49;101210.13;6302638;22;20354;-76
2023/07/17 03:22:18;;;;;;;14.63;9.10;;;;;;;26.35;57.31;101203.59;6278751;22;20341;-76
2023/07/17 03:24:43;;;;;;;11.18;8.20;;;;;;;26.27;57.78;101201.38;6305445;22;20644;-75
2023/07/17 03:27:09;;;;;;;12.13;8.87;;;;;;;26.20;58.30;101206.22;6306950;22;20362;-75
2023/07/17 03:29:35;;;;;;;11.35;8.52;;;;;;;26.15;58.40;101198.06;6281393;22;20354;-76
2023/07/17 03:32:01;;;;;;;15.73;9.00;;;;;;;26.21;58.25;101203.25;6279561;22;20725;-76
2023/07/17 03:34:26;;;;;;;16.30;9.13;;;;;;;26.27;58.13;101194.06;6305161;22;20349;-76
2023/07/17 03:36:52;;;;;;;12.87;8.90;;;;;;;26.36;57.96;101194.34;6278224;22;20384;-76
2023/07/17 03:39:18;;;;;;;14.70;8.88;;;;;;;26.45;57.65;101206.38;6305402;22;20334;-76
2023/07/17 03:41:44;;;;;;;15.65;8.40;;;;;;;26.55;57.34;101202.88;6304681;22;20351;-75
2023/07/17 03:44:09;;;;;;;16.47;8.60;;;;;;;26.60;57.51;101208.34;6305658;22;20326;-77
2023/07/17 03:46:35;;;;;;;14.55;8.48;;;;;;;26.56;57.42;101200.97;6308817;22;20490;-75
2023/07/17 03:49:00;;;;;;;14.60;8.85;;;;;;;26.63;57.72;101207.84;6306442;22;20352;-76
2023/07/17 03:51:26;;;;;;;16.93;9.30;;;;;;;26.73;57.52;101207.06;6305250;22;20330;-77
2023/07/17 03:53:51;;;;;;;12.70;8.53;;;;;;;26.70;57.29;101199.41;6304980;22;20342;-75
2023/07/17 03:56:17;;;;;;;13.80;8.87;;;;;;;26.72;57.40;101213.56;6305095;22;20441;-75
2023/07/17 03:58:42;;;;;;;16.55;9.43;;;;;;;26.76;57.29;101206.53;6305246;22;20380;-76
2023/07/17 04:01:08;;;;;;;17.13;9.10;;;;;;;26.77;57.44;101210.06;6304779;22;20330;-76
2023/07/17 04:03:33;;;;;;;13.70;8.40;;;;;;;26.70;57.75;101210.28;6304718;22;20503;-76
2023/07/17 04:05:59;;;;;;;11.60;8.70;;;;;;;26.75;57.60;101223.09;6304970;22;20365;-76
2023/07/17 04:08:24;;;;;;;16.23;8.65;;;;;;;26.82;57.34;101220.97;6303409;22;20338;-76
2023/07/17 04:10:50;;;;;;;12.57;8.67;;;;;;;26.64;57.63;101225.78;6303559;22;20341;-76
2023/07/17 04:13:15;;;;;;;16.43;8.90;;;;;;;26.52;58.25;101225.13;6304634;22;20345;-75
2023/07/17 04:15:41;;;;;;;11.33;8.47;;;;;;;26.49;58.04;101223.78;6305036;22;20778;-78
2023/07/17 04:18:07;;;;;;;11.68;9.00;;;;;;;26.66;57.91;101229.03;6278124;22;20338;-76
2023/07/17 04:20:33;;;;;;;13.03;8.90;;;;;;;26.84;57.56;101233.19;6277988;22;20342;-76
2023/07/17 04:22:58;;;;;;;14.10;8.80;;;;;;;27.03;56.99;101236.25;6277707;22;20845;-76
2023/07/17 04:25:24;;;;;;;11.87;9.27;;;;;;;27.14;56.66;101230.84;6304812;22;20680;-76
2023/07/17 04:27:50;;;;;;;17.33;10.18;;;;;;;27.28;56.52;101232.00;6304870;22;20372;-77
2023/07/17 04:30:15;;;;;;;17.03;10.00;;;;;;;27.40;56.22;101229.81;6304599;22;20425;-76
2023/07/17 04:32:41;;;;;;;14.63;10.10;;;;;;;27.46;55.77;101231.47;6277906;22;20338;-77
2023/07/17 04:35:07;;;;;;;15.35;10.13;;;;;;;27.59;55.78;101241.00;6278019;22;20433;-76
2023/07/17 04:37:32;;;;;;;19.03;10.00;;;;;;;27.70;55.48;101244.56;6304410;22;20422;-76
2023/07/17 04:39:58;;;;;;;12.63;9.85;;;;;;;27.80;55.14;101246.44;6304873;22;20430;-76
2023/07/17 04:42:23;;;;;;;15.68;9.70;;;;;;;27.94;54.92;101244.03;6277813;22;20446;-76
2023/07/17 04:44:49;;;;;;;14.53;9.63;;;;;;;28.04;54.58;101233.13;6304965;22;20783;-76
2023/07/17 04:47:14;;;;;;;16.60;10.77;;;;;;;28.16;54.77;101236.38;6305746;22;20718;-76
2023/07/17 04:49:40;;;;;;;16.40;10.77;;;;;;;28.22;54.48;101240.72;6306170;22;20425;-75
2023/07/17 04:52:05;;;;;;;16.63;11.02;;;;;;;28.38;54.30;101243.41;6305686;22;20770;-76
2023/07/17 04:54:31;;;;;;;17.35;11.15;;;;;;;28.37;54.02;101253.50;6305439;22;20774;-75
2023/07/17 04:56:56;;;;;;;10.97;8.63;;;;;;;28.30;54.35;101254.88;6304390;22;20358;-76
2023/07/17 04:59:22;;;;;;;15.37;10.00;;;;;;;28.31;54.48;101251.06;6277555;22;20762;-76
2023/07/17 05:01:47;;;;;;;14.25;9.93;;;;;;;28.39;54.17;101253.22;6304788;22;20346;-77
2023/07/17 05:04:13;;;;;;;15.68;9.30;;;;;;;28.60;53.68;101248.56;6304715;22;20413;-76
2023/07/17 05:06:38;;;;;;;14.13;9.27;;;;;;;28.72;53.38;101246.31;6304065;22;20365;-76
2023/07/17 05:09:04;;;;;;;15.20;9.53;;;;;;;28.90;53.09;101253.06;6304602;22;20346;-76
2023/07/17 05:11:29;;;;;;;15.30;9.37;;;;;;;29.01;53.03;101245.66;6304919;22;20459;-75
2023/07/17 05:13:55;;;;;;;13.20;9.80;;;;;;;28.96;52.89;101245.66;6305161;22;20639;-75
2023/07/17 05:16:20;;;;;;;11.87;9.40;;;;;;;29.14;52.78;101255.13;6304722;22;20790;-76
2023/07/17 05:18:46;;;;;;;17.07;9.20;;;;;;;29.27;52.44;101249.06;6277861;22;20817;-75
2023/07/17 05:21:11;;;;;;;15.33;9.63;;;;;;;29.48;51.92;101249.75;6277537;22;20650;-76
2023/07/17 05:23:37;;;;;;;12.23;8.70;;;;;;;29.50;51.92;101260.38;6305274;22;20439;-75
2023/07/17 05:26:05;;;;;;;13.40;9.63;;;;;;;29.52;51.79;101242.59;6307135;22;20373;-75
2023/07/17 05:28:31;;;;;;;10.40;8.70;;;;;;;29.52;51.71;101239.88;6307748;22;20471;-76
2023/07/17 05:30:56;;;;;;;13.15;8.45;;;;;;;29.64;51.57;101244.13;6305370;22;20396;-75
2023/07/17 05:33:23;;;;;;;11.83;8.23;;;;;;;29.78;51.53;101252.53;6304808;22;20407;-75
2023/07/17 05:35:49;;;;;;;12.65;8.60;;;;;;;29.97;51.15;101248.00;6304381;22;20333;-77
2023/07/17 05:38:15;;;;;;;14.50;8.82;;;;;;;30.08;50.90;101246.78;6304828;22;20410;-76
2023/07/17 05:40:41;;;;;;;11.00;8.70;;;;;;;30.14;50.65;101249.47;6305088;22;20420;-76
2023/07/17 05:43:08;;;;;;;12.95;8.40;;;;;;;30.27;50.68;101243.31;6279906;22;20437;-76
2023/07/17 05:45:34;;;;;;;10.20;8.07;;;;;;;30.38;50.37;101242.13;6309721;22;20342;-76
2023/07/17 05:48:00;;;;;;;9.73;8.30;;;;;;;30.47;50.18;101248.59;6307235;22;20372;-74
2023/07/17 05:50:25;;;;;;;11.47;8.87;;;;;;;30.67;49.59;101243.97;6306096;22;20409;-76
2023/07/17 05:52:51;;;;;;;12.30;8.43;;;;;;;30.68;49.45;101242.84;6306594;22;20337;-76
2023/07/17 05:55:17;;;;;;;13.10;8.32;;;;;;;30.73;49.19;101259.22;6306799;22;20418;-75
2023/07/17 05:57:42;;;;;;;9.63;8.43;;;;;;;30.66;49.34;101261.50;6306401;22;20365;-76
2023/07/17 06:00:18;;;;;;;10.57;8.40;;;;;;;30.75;49.10;101269.88;6306543;22;20341;-76
2023/07/17 06:02:44;;;;;;;13.77;9.10;;;;;;;31.02;48.90;101253.66;6306165;22;20348;-76
2023/07/17 06:05:10;;;;;;;12.30;8.73;;;;;;;31.16;48.23;101259.22;6306639;22;20330;-75
2023/07/17 06:07:37;;;;;;;10.35;8.13;;;;;;;31.19;48.29;101264.13;6306469;22;20740;-75
2023/07/17 06:10:03;;;;;;;10.30;8.25;;;;;;;31.28;48.11;101266.19;6307095;22;20416;-76
2023/07/17 06:12:28;;;;;;;12.65;8.80;;;;;;;31.12;48.27;101262.88;6307467;22;20338;-75
2023/07/17 06:14:54;;;;;;;11.33;8.40;;;;;;;31.21;48.15;101267.38;6280062;22;20346;-77
2023/07/17 06:17:19;;;;;;;10.57;8.50;;;;;;;31.33;47.77;101255.97;6306968;22;20774;-76
2023/07/17 06:19:44;;;;;;;9.97;8.40;;;;;;;31.64;47.23;101263.75;6306220;22;20415;-75
2023/07/17 06:22:10;;;;;;;10.77;8.53;;;;;;;31.88;47.15;101266.34;6306510;22;20639;-76
2023/07/17 06:24:35;;;;;;;11.20;8.40;;;;;;;32.03;46.65;101258.97;6306759;22;20333;-76
2023/07/17 06:27:01;;;;;;;10.00;7.93;;;;;;;32.19;46.32;101252.09;6306930;22;20760;-76
2023/07/17 06:29:27;;;;;;;11.90;8.07;;;;;;;32.37;45.86;101258.63;6279299;22;20346;-76
2023/07/17 06:31:52;;;;;;;9.95;8.52;;;;;;;32.60;45.10;101243.09;6306095;22;20352;-76
2023/07/17 06:34:18;;;;;;;11.13;8.23;;;;;;;32.76;44.25;101251.84;6306703;22;20346;-75
2023/07/17 06:36:44;;;;;;;13.25;8.95;;;;;;;32.76;44.47;101249.88;6302870;22;20659;-74
2023/07/17 06:39:10;;;;;;;12.55;9.18;;;;;;;32.88;44.45;101243.88;6303891;22;20356;-75
2023/07/17 06:41:36;;;;;;;12.15;9.27;;;;;;;32.65;44.58;101242.19;6303098;22;20338;-76
2023/07/17 06:44:01;;;;;;;15.93;9.77;;;;;;;32.57;44.60;101239.03;6276998;22;20362;-76
2023/07/17 06:46:27;;;;;;;15.47;9.23;;;;;;;32.45;45.04;101235.97;6304429;22;20671;-76
2023/07/17 06:48:52;;;;;;;14.83;9.57;;;;;;;32.66;45.78;101232.81;6302361;22;20439;-75
2023/07/17 06:51:18;;;;;;;15.00;8.93;;;;;;;32.96;45.25;101239.59;6305524;22;20341;-75
2023/07/17 06:53:43;;;;;;;12.60;9.33;;;;;;;33.14;44.86;101230.41;6278812;22;20337;-75
2023/07/17 06:56:09;;;;;;;11.80;8.90;;;;;;;33.14;43.96;101238.63;6305762;22;20705;-76
2023/07/17 06:58:34;;;;;;;12.63;9.43;;;;;;;32.98;44.19;101236.53;6305691;22;20401;-75
2023/07/17 07:01:00;;;;;;;13.83;9.03;;;;;;;32.89;43.98;101228.22;6278795;22;20346;-75
2023/07/17 07:03:27;;;;;;;11.63;9.20;;;;;;;32.95;43.65;101233.28;6305714;22;20352;-76
2023/07/17 07:06:04;;;;;;;13.60;9.63;;;;;;;33.18;43.28;101227.84;6306453;22;20349;-75
2023/07/17 07:08:30;;;;;;;15.90;9.85;;;;;;;33.21;42.95;101227.22;6306271;22;20349;-76
2023/07/17 07:10:58;;;;;;;13.55;9.10;;;;;;;33.40;42.68;101224.28;6306483;22;20418;-76
2023/07/17 07:13:24;;;;;;;14.15;9.23;;;;;;;33.50;42.33;101229.53;6306485;22;20334;-75
2023/07/17 07:15:50;;;;;;;13.82;8.25;;;;;;;33.62;42.26;101230.91;6279321;22;20345;-76
2023/07/17 07:18:17;;;;;;;12.98;8.82;;;;;;;33.74;41.93;101220.16;6305734;22;20338;-75
2023/07/17 07:20:43;;;;;;;12.38;8.63;;;;;;;33.94;41.65;101223.50;6305599;22;20342;-75
2023/07/17 07:23:09;;;;;;;13.60;9.07;;;;;;;34.13;40.88;101218.59;6306566;22;20338;-76
2023/07/17 07:25:34;;;;;;;9.80;8.03;;;;;;;34.23;41.24;101212.00;6310764;22;20692;-75
2023/07/17 07:28:00;;;;;;;8.67;7.77;;;;;;;34.21;41.11;101215.06;6307239;22;20404;-76
2023/07/17 07:30:26;;;;;;;13.60;8.80;;;;;;;34.34;40.94;101210.59;6305738;22;20342;-77
2023/07/17 07:32:52;;;;;;;11.63;7.70;;;;;;;34.39;40.50;101212.38;6305238;22;20365;-77
2023/07/17 07:35:18;;;;;;;11.17;8.03;;;;;;;34.51;39.94;101211.78;6306052;22;20330;-76
2023/07/17 07:37:43;;;;;;;11.48;7.70;;;;;;;34.46;39.66;101208.00;6278540;22;20352;-76
2023/07/17 07:40:11;;;;;;;10.30;7.78;;;;;;;34.34;39.86;101202.34;6306055;22;20348;-76
2023/07/17 07:42:40;;;;;;;11.30;7.47;;;;;;;34.59;40.30;101203.53;6306325;22;20647;-77
2023/07/17 07:45:06;;;;;;;12.07;8.20;;;;;;;34.63;39.47;101201.75;6309209;22;20330;-76
2023/07/17 07:47:32;;;;;;;10.17;7.77;;;;;;;34.34;39.89;101205.09;6306240;22;20668;-76
2023/07/17 07:49:59;;;;;;;10.75;8.25;;;;;;;34.36;39.85;101199.25;6305319;22;20345;-76
2023/07/17 07:52:25;;;;;;;11.00;8.23;;;;;;;34.23;40.32;101212.00;6306202;22;20341;-76
2023/07/17 07:54:50;;;;;;;11.60;8.30;;;;;;;34.12;40.18;101203.19;6305843;22;20698;-75
2023/07/17 07:57:16;;;;;;;11.43;8.30;;;;;;;34.14;40.44;101200.13;6279116;22;20372;-74
2023/07/17 07:59:41;;;;;;;12.97;7.90;;;;;;;34.44;40.32;101204.78;6305765;22;20384;-76
2023/07/17 08:02:07;;;;;;;11.57;8.33;;;;;;;34.27;40.34;101205.56;6305783;22;20334;-77
2023/07/17 08:04:33;;;;;;;13.30;8.63;;;;;;;34.51;40.06;101204.31;6305525;22;20397;-77
2023/07/17 08:06:58;;;;;;;11.73;8.07;;;;;;;34.60;39.77;101196.88;6306176;22;20369;-76
2023/07/17 08:09:24;;;;;;;9.80;8.32;;;;;;;34.59;40.07;101197.19;6277831;22;20409;-75
2023/07/17 08:11:50;;;;;;;12.43;8.65;;;;;;;34.76;39.85;101199.22;6305532;22;20655;-75
2023/07/17 08:14:15;;;;;;;9.30;8.07;;;;;;;35.13;39.29;101189.50;6305902;22;20330;-75
2023/07/17 08:16:41;;;;;;;12.57;8.20;;;;;;;35.30;38.72;101196.16;6305491;22;20333;-77
2023/07/17 08:19:06;;;;;;;9.77;7.87;;;;;;;35.15;38.89;101189.13;6305102;22;20338;-74
2023/07/17 08:21:32;;;;;;;14.13;8.43;;;;;;;35.36;39.04;101181.03;6304816;22;20842;-75
2023/07/17 08:23:58;;;;;;;10.67;8.43;;;;;;;35.58;38.95;101183.59;6279908;22;20667;-76
2023/07/17 08:26:24;;;;;;;11.32;8.88;;;;;;;35.74;38.63;101178.38;6307728;22;20357;-76
2023/07/17 08:28:50;;;;;;;13.57;8.77;;;;;;;35.90;38.90;101175.06;6308300;22;20426;-75
2023/07/17 08:31:16;;;;;;;15.63;8.70;;;;;;;36.05;38.39;101180.03;6304814;22;20975;-76
2023/07/17 08:33:41;;;;;;;13.07;8.77;;;;;;;36.20;38.25;101175.94;6305429;22;20337;-76
2023/07/17 08:36:07;;;;;;;14.87;9.33;;;;;;;36.26;38.02;101171.81;6306073;22;20330;-76
2023/07/17 08:38:32;;;;;;;11.73;8.57;;;;;;;36.42;37.92;101180.34;6305727;22;20619;-76
2023/07/17 08:40:59;;;;;;;11.77;8.43;;;;;;;36.61;36.98;101179.06;6305893;22;20329;-75
2023/07/17 08:43:26;;;;;;;11.30;8.35;;;;;;;36.65;36.97;101177.28;6305227;22;20344;-76
2023/07/17 08:45:52;;;;;;;10.60;8.02;;;;;;;36.70;36.87;101171.56;6305721;22;20416;-75
2023/07/17 08:48:18;;;;;;;11.57;8.77;;;;;;;36.74;37.15;101169.75;6305615;22;20725;-76
2023/07/17 08:50:44;;;;;;;11.43;8.57;;;;;;;36.84;36.97;101174.03;6306527;22;20834;-77
2023/07/17 08:53:11;;;;;;;12.27;8.20;;;;;;;36.98;36.38;101174.56;6305774;22;20334;-76
2023/07/17 08:55:37;;;;;;;10.80;8.10;;;;;;;37.17;36.28;101173.28;6305080;22;20341;-75
2023/07/17 08:58:03;;;;;;;10.93;8.30;;;;;;;37.29;35.79;101174.16;6305566;22;20372;-75
2023/07/17 09:00:30;;;;;;;14.73;8.18;;;;;;;37.28;35.71;101171.72;6304775;22;20376;-78
2023/07/17 09:02:56;;;;;;;10.97;7.87;;;;;;;37.27;35.77;101173.66;6305718;22;20451;-78
2023/07/17 09:05:21;;;;;;;10.38;8.43;;;;;;;37.35;35.35;101180.28;6305942;22;20351;-77
2023/07/17 09:07:50;;;;;;;9.77;7.93;;;;;;;37.42;34.87;101168.63;6278749;22;20395;-77
2023/07/17 09:10:20;;;;;;;12.23;8.02;;;;;;;37.54;35.04;101167.88;6305853;22;20411;-76
2023/07/17 09:12:57;;;;;;;10.93;7.70;;;;;;;37.42;35.13;101172.22;6305573;22;20350;-76
2023/07/17 09:15:24;;;;;;;12.95;8.07;;;;;;;37.37;35.09;101166.13;6305825;22;20376;-77
2023/07/17 09:17:50;;;;;;;10.88;7.88;;;;;;;37.46;35.25;101166.81;6305107;22;20686;-77
2023/07/17 09:20:17;;;;;;;9.95;7.63;;;;;;;37.54;35.21;101167.88;6306148;22;20395;-76
2023/07/17 09:22:43;;;;;;;15.50;9.07;;;;;;;37.58;34.77;101164.09;6305107;22;20334;-77
2023/07/17 09:25:10;;;;;;;14.40;9.07;;;;;;;37.50;35.44;101156.69;6278490;22;20345;-76
2023/07/17 09:27:46;;;;;;;12.35;8.18;;;;;;;37.58;34.91;101155.78;6308650;22;20365;-75
2023/07/17 09:30:14;;;;;;;13.73;8.30;;;;;;;37.79;34.97;101157.66;6306216;22;20667;-77
2023/07/17 09:32:40;;;;;;;15.37;8.37;;;;;;;38.07;34.71;101149.50;6305367;22;20357;-76
2023/07/17 09:35:07;;;;;;;10.75;7.65;;;;;;;38.22;34.14;101148.00;6278659;22;20338;-75
2023/07/17 09:37:34;;;;;;;9.40;7.87;;;;;;;38.27;33.89;101142.22;6304999;22;20338;-76
2023/07/17 09:40:13;;;;;;;11.90;7.75;;;;;;;38.16;33.46;101143.84;6305481;22;20412;-76
2023/07/17 09:42:43;;;;;;;12.52;7.88;;;;;;;38.17;33.75;101143.50;6304364;22;20402;-75
2023/07/17 09:45:14;;;;;;;10.65;7.80;;;;;;;38.21;33.27;101144.44;6305860;22;20948;-76
2023/07/17 09:47:41;;;;;;;11.57;7.93;;;;;;;38.31;32.88;101143.13;6281461;22;20684;-77
2023/07/17 09:50:08;;;;;;;13.57;8.20;;;;;;;38.40;33.21;101151.31;6304718;22;20342;-77
2023/07/17 09:52:34;;;;;;;9.20;7.70;;;;;;;38.41;33.36;101137.13;6304764;22;20386;-75
2023/07/17 09:55:00;;;;;;;9.48;7.68;;;;;;;38.51;33.79;101140.53;6304563;22;20424;-76
2023/07/17 09:57:28;;;;;;;12.85;7.95;;;;;;;38.54;33.60;101143.41;6302735;22;20361;-76
2023/07/17 10:00:01;;;;;;;10.52;7.90;;;;;;;38.51;33.56;101138.56;6299264;22;20385;-77
2023/07/17 10:02:30;;;;;;;9.90;7.77;;;;;;;38.51;33.39;101148.84;6302767;22;20372;-76
2023/07/17 10:04:58;;;;;;;11.82;8.63;;;;;;;38.59;33.01;101139.63;6299299;22;20338;-76
2023/07/17 10:07:24;;;;;;;14.23;8.13;;;;;;;38.72;32.45;101135.66;6299435;22;20757;-76
2023/07/17 10:09:51;;;;;;;10.65;8.63;;;;;;;38.54;31.70;101137.88;6302763;22;20338;-76
2023/07/17 10:12:17;;;;;;;12.35;9.43;;;;;;;38.33;31.63;101134.47;6301713;22;20391;-75
2023/07/17 10:14:45;;;;;;;11.40;9.60;;;;;;;38.45;31.19;101126.13;6302430;22;20337;-76
2023/07/17 10:17:34;;;;;;;11.52;10.05;;;;;;;38.42;31.27;101119.31;6301207;22;20330;-75
2023/07/17 10:20:02;;;;;;;11.40;9.70;;;;;;;38.74;30.54;101124.22;6302746;22;20342;-80
2023/07/17 10:22:33;;;;;;;12.57;9.88;;;;;;;38.73;30.18;101122.59;6305257;22;20337;-76
2023/07/17 10:25:08;;;;;;;11.60;10.10;;;;;;;38.68;30.76;101117.31;6304615;22;20341;-77
2023/07/17 10:27:44;;;;;;;10.60;9.50;;;;;;;38.50;30.77;101109.28;6305144;22;20365;-76
2023/07/17 10:30:36;;;;;;;11.63;9.38;;;;;;;38.78;30.66;101106.53;6307043;22;20448;-75
2023/07/17 10:33:13;;;;;;;11.25;9.18;;;;;;;38.88;30.89;101101.63;6302564;22;20825;-76
2023/07/17 10:35:47;;;;;;;12.00;7.95;;;;;;;38.91;31.36;101098.16;6309429;22;20334;-78
2023/07/17 10:38:17;;;;;;;11.43;8.60;;;;;;;38.98;30.92;101101.91;6307259;22;20413;-76
2023/07/17 10:40:43;;;;;;;12.45;8.90;;;;;;;38.93;31.45;101093.88;6307589;22;20456;-75
2023/07/17 10:43:17;;;;;;;10.82;9.38;;;;;;;39.00;31.75;101088.53;6307373;22;20392;-75
2023/07/17 10:45:43;;;;;;;10.70;9.70;;;;;;;39.17;31.08;101086.59;6307315;22;20825;-78
2023/07/17 10:48:09;;;;;;;11.88;8.80;;;;;;;39.18;30.99;101090.97;6306537;22;21046;-76
2023/07/17 10:50:35;;;;;;;12.35;9.73;;;;;;;39.27;31.07;101082.50;6306342;22;20412;-76
2023/07/17 10:53:05;;;;;;;11.55;9.45;;;;;;;39.13;30.27;101086.53;6308198;22;20338;-76
2023/07/17 10:55:32;;;;;;;11.50;10.30;;;;;;;39.04;31.08;101076.75;6306409;22;20341;-76
2023/07/17 10:57:59;;;;;;;12.00;9.73;;;;;;;39.02;30.30;101074.31;6307222;22;20362;-76
2023/07/17 11:00:25;;;;;;;10.98;9.93;;;;;;;39.03;30.25;101078.72;6280752;22;20411;-76
2023/07/17 11:02:50;;;;;;;11.05;9.95;;;;;;;39.08;30.25;101072.91;6306850;22;20349;-75
2023/07/17 11:05:16;;;;;;;12.20;10.38;;;;;;;39.31;30.08;101080.59;6307505;22;20370;-74
2023/07/17 11:07:42;;;;;;;12.40;10.40;;;;;;;39.25;30.00;101082.84;6281434;22;20369;-76
2023/07/17 11:10:11;;;;;;;11.15;10.00;;;;;;;39.40;30.36;101084.03;6307674;22;20875;-76
2023/07/17 11:12:42;;;;;;;11.98;10.20;;;;;;;39.55;29.85;101074.09;6306552;22;20338;-75
2023/07/17 11:15:15;;;;;;;11.25;10.25;;;;;;;39.60;29.52;101059.97;6307087;22;20326;-75